Terminal Aerodrome Forecast
Issued by NWS

Home | Current Version | Previous Version | Text Only | Print | Product List | Glossary On
Versions: 1 2 3 4 5 6 7 8 9 10 11 12 13 14 15 16 17
922
FTUS41 KAKQ 090310 AAA
TAFPHF
TAF AMD
KPHF 090310Z 0903/0924 12005KT P6SM SCT012 BKN020
     FM090600 22005KT 6SM BR BKN012
     FM091200 26008KT P6SM BKN025
     FM091600 27011G17KT P6SM BKN035=

USA.gov is the U.S. government's official web portal to all federal, state and local government web resources and services.